LEMD/MAD METAR and TAF weather

Enter ICAO airport designator
Station Type Date Time Source
LEMD METAR 2018/12/12 11:30 UTC NOAA

LEMD 121130Z VRB01KT 2000 BR BKN002 OVC006 04/04 Q1022 BECMG 3000 BR BKN008


Station Type Date Time Source
LEMD Decoded METAR 2018/12/12 11:30 UTC NOAA

Madrid / Barajas, Spain (LEMD) 40-27N 003-33W 582M
Dec 12, 2018 - 06:30 AM EST / 2018.12.12 1130 UTC
Wind: Variable at 1 MPH (1 KT):0
Visibility: 1 mile(s):0
Sky conditions: overcast
Weather: mist
Temperature: 39 F (4 C)
Dew Point: 39 F (4 C)
Relative Humidity: 100%
Pressure (altimeter): 30.18 in. Hg (1022 hPa)
ob: LEMD 121130Z VRB01KT 2000 BR BKN002 OVC006 04/04 Q1022 BECMG 3000 BR BKN008
cycle: 11

Station Type Date Time Source
LEMD TAF 2018/12/12 12:29 UTC NOAA

TAF LEMD 121100Z 1212/1318 VRB04KT 5000 BR BKN008 TX09/1315Z TN05/1306Z
BECMG 1212/1213 22008KT
BECMG 1305/1306 29015G28KT PROB40
TEMPO 1310/1318 30017G34KT PROB40
TEMPO 1221/1303 2000 DZ BR BKN006
TEMPO 1303/1310 4000 RA BKN012
BECMG 1310/1312 9999 NSW


Example: see airport list